Time;durP1;ratioP1;P1;durP2;ratioP2;P2;SDS_P1;SDS_P2;PMS_P1;PMS_P2;Temp;Humidity;BMP_temperature;BMP_pressure;BME280_temperature;BME280_humidity;BME280_pressure;Samples;Min_cycle;Max_cycle;Signal;HPM_P1;HPM_P2
2021/08/02 00:01:21;;;;;;;0.00;0.00;;;22.90;93.20;;;;;;5036700;28;20020;-87
2021/08/02 00:04:02;;;;;;;0.00;0.00;;;22.90;94.00;;;;;;5036129;28;20035;-88
2021/08/02 00:06:49;;;;;;;0.05;0.05;;;22.90;94.50;;;;;;5036947;28;20071;-90
2021/08/02 00:09:31;;;;;;;0.00;0.00;;;22.80;94.80;;;;;;5037225;28;20040;-90
2021/08/02 00:12:04;;;;;;;0.00;0.00;;;22.80;95.30;;;;;;5036633;28;20074;-87
2021/08/02 00:14:31;;;;;;;0.00;0.00;;;22.80;95.60;;;;;;5038136;28;20025;-88
2021/08/02 00:16:58;;;;;;;0.00;0.00;;;22.80;95.70;;;;;;5037885;28;20033;-87
2021/08/02 00:19:26;;;;;;;0.00;0.00;;;22.80;95.80;;;;;;5054835;28;20029;-88
2021/08/02 00:21:52;;;;;;;0.00;0.00;;;22.80;96.00;;;;;;5036441;28;20052;-88
2021/08/02 00:24:20;;;;;;;0.00;0.00;;;22.80;96.60;;;;;;5036275;28;20040;-87
2021/08/02 00:26:47;;;;;;;0.00;0.00;;;22.80;96.60;;;;;;5036150;28;20516;-88
2021/08/02 00:29:14;;;;;;;0.00;0.00;;;22.80;97.10;;;;;;5036566;28;20070;-85
2021/08/02 00:31:40;;;;;;;0.05;0.05;;;22.80;97.20;;;;;;5039347;28;20082;-90
2021/08/02 00:34:06;;;;;;;0.00;0.00;;;22.70;97.20;;;;;;5036419;28;20470;-88
2021/08/02 00:36:38;;;;;;;0.00;0.00;;;22.80;97.20;;;;;;5036237;28;20032;-87
2021/08/02 00:39:09;;;;;;;0.05;0.05;;;22.80;97.30;;;;;;5036332;28;20382;-89
2021/08/02 00:41:59;;;;;;;0.00;0.00;;;22.70;97.40;;;;;;5040765;28;20458;-89
2021/08/02 00:44:44;;;;;;;0.00;0.00;;;22.80;97.20;;;;;;5037959;28;20163;-90
2021/08/02 00:47:16;;;;;;;0.00;0.00;;;22.70;97.10;;;;;;5043314;23;20045;-89
2021/08/02 00:49:57;;;;;;;0.00;0.00;;;22.70;97.10;;;;;;5032350;28;20025;-92
2021/08/02 00:52:26;;;;;;;0.00;0.00;;;22.70;97.00;;;;;;5032697;28;20033;-90
2021/08/02 00:54:56;;;;;;;0.00;0.00;;;22.60;97.40;;;;;;5032431;28;20032;-90
2021/08/02 00:57:22;;;;;;;0.00;0.00;;;22.50;97.80;;;;;;5032380;28;20033;-91
2021/08/02 00:59:51;;;;;;;0.00;0.00;;;22.50;98.10;;;;;;5033418;28;20053;-89
2021/08/02 01:02:19;;;;;;;0.00;0.00;;;22.50;98.60;;;;;;5032409;28;20124;-91
2021/08/02 01:04:48;;;;;;;0.00;0.00;;;22.40;99.10;;;;;;5033564;28;20075;-90
2021/08/02 01:07:17;;;;;;;0.00;0.00;;;22.40;99.60;;;;;;5032181;28;20441;-89
2021/08/02 01:09:46;;;;;;;0.00;0.00;;;22.30;99.80;;;;;;5032222;28;20026;-89
2021/08/02 01:12:13;;;;;;;0.00;0.00;;;22.40;99.90;;;;;;5032168;28;20044;-89
2021/08/02 01:14:41;;;;;;;0.00;0.00;;;22.30;99.90;;;;;;5034674;28;20036;-91
2021/08/02 01:17:11;;;;;;;0.00;0.00;;;22.30;99.90;;;;;;5041346;28;20025;-88
2021/08/02 01:19:38;;;;;;;0.00;0.00;;;22.30;99.90;;;;;;5044963;28;20017;-88
2021/08/02 01:22:04;;;;;;;0.00;0.00;;;22.30;99.90;;;;;;5046726;28;20120;-90
2021/08/02 01:24:35;;;;;;;0.10;0.10;;;22.30;99.90;;;;;;5032484;28;20018;-89
2021/08/02 01:27:38;;;;;;;0.00;0.00;;;22.20;99.90;;;;;;5032023;28;20091;-89
2021/08/02 01:30:24;;;;;;;0.00;0.00;;;22.20;99.90;;;;;;5036234;28;20032;-92
2021/08/02 01:32:50;;;;;;;0.10;0.10;;;22.20;99.90;;;;;;5035825;28;20040;-89
2021/08/02 01:35:17;;;;;;;0.00;0.00;;;22.20;99.90;;;;;;5035560;28;20029;-90
2021/08/02 01:37:44;;;;;;;0.00;0.00;;;22.20;99.90;;;;;;5035731;28;20513;-88
2021/08/02 01:40:10;;;;;;;0.00;0.00;;;22.10;99.90;;;;;;5035634;28;20030;-89
2021/08/02 01:42:39;;;;;;;0.00;0.00;;;22.10;99.90;;;;;;5035788;28;20544;-89
2021/08/02 01:45:06;;;;;;;0.00;0.00;;;22.10;99.90;;;;;;5035578;28;20025;-90
2021/08/02 01:48:07;;;;;;;0.00;0.00;;;22.00;99.90;;;;;;5021490;28;20045;-90
2021/08/02 01:51:12;;;;;;;0.05;0.05;;;22.00;99.90;;;;;;5003796;28;20081;-90
2021/08/02 01:54:15;;;;;;;0.00;0.00;;;22.00;99.90;;;;;;4994404;28;20042;-89
2021/08/02 01:56:54;;;;;;;0.00;0.00;;;21.90;99.90;;;;;;4967196;28;20152;-91
2021/08/02 01:59:24;;;;;;;0.00;0.00;;;21.80;99.90;;;;;;5015589;28;20080;-89
2021/08/02 02:02:02;;;;;;;0.00;0.00;;;21.80;99.90;;;;;;5015667;28;20026;-89
2021/08/02 02:04:35;;;;;;;0.08;0.08;;;21.80;99.90;;;;;;5015539;28;20080;-91
2021/08/02 02:07:03;;;;;;;0.00;0.00;;;21.80;99.90;;;;;;5015530;28;20092;-88
2021/08/02 02:09:34;;;;;;;0.00;0.00;;;21.80;99.90;;;;;;5015421;28;20036;-90
2021/08/02 02:12:01;;;;;;;0.00;0.00;;;21.80;99.90;;;;;;5015576;28;20033;-90
2021/08/02 02:14:30;;;;;;;0.00;0.00;;;21.80;99.90;;;;;;5015427;28;20026;-92
2021/08/02 02:16:58;;;;;;;0.00;0.00;;;21.80;99.90;;;;;;5016848;28;20502;-89
2021/08/02 02:19:26;;;;;;;0.00;0.00;;;21.70;99.90;;;;;;5015477;28;20433;-90
2021/08/02 02:21:53;;;;;;;0.00;0.00;;;21.70;99.90;;;;;;5015374;28;20087;-92
2021/08/02 02:24:19;;;;;;;0.10;0.10;;;21.70;99.90;;;;;;5016591;28;20033;-90
2021/08/02 02:26:46;;;;;;;0.00;0.00;;;21.70;99.90;;;;;;5014968;28;20034;-90
2021/08/02 02:29:15;;;;;;;0.00;0.00;;;21.70;99.90;;;;;;5015278;28;20034;-90
2021/08/02 02:31:43;;;;;;;0.00;0.00;;;21.70;99.90;;;;;;5016162;28;20033;-90
2021/08/02 02:34:11;;;;;;;0.00;0.00;;;21.70;99.90;;;;;;5014964;28;20033;-90
2021/08/02 02:36:39;;;;;;;0.00;0.00;;;21.70;99.90;;;;;;5014811;28;20033;-89
2021/08/02 02:39:05;;;;;;;0.05;0.05;;;21.80;99.90;;;;;;5014076;28;20042;-91
2021/08/02 02:41:32;;;;;;;0.05;0.05;;;21.80;99.90;;;;;;5014982;28;20038;-88
2021/08/02 02:43:59;;;;;;;0.00;0.00;;;21.80;99.90;;;;;;5014740;28;20118;-88
2021/08/02 02:46:25;;;;;;;0.00;0.00;;;21.90;99.90;;;;;;5014523;28;20034;-90
2021/08/02 02:48:54;;;;;;;0.00;0.00;;;22.00;99.90;;;;;;5014999;28;20132;-89
2021/08/02 02:51:21;;;;;;;0.00;0.00;;;22.00;99.90;;;;;;5016060;28;20034;-89
2021/08/02 02:53:47;;;;;;;0.00;0.00;;;22.10;99.90;;;;;;5014846;28;20026;-91
2021/08/02 02:56:15;;;;;;;0.00;0.00;;;22.20;99.90;;;;;;5016205;28;20068;-91
2021/08/02 02:58:42;;;;;;;0.00;0.00;;;22.20;99.90;;;;;;5014687;28;20026;-90
2021/08/02 03:01:10;;;;;;;0.10;0.10;;;22.20;99.90;;;;;;5014401;28;20121;-91
2021/08/02 03:03:39;;;;;;;0.00;0.00;;;22.20;99.90;;;;;;5014720;28;20080;-90
2021/08/02 03:06:06;;;;;;;0.00;0.00;;;22.30;99.90;;;;;;5014512;28;20125;-88
2021/08/02 03:08:35;;;;;;;0.00;0.00;;;22.30;99.90;;;;;;5015845;28;20102;-90
2021/08/02 03:11:03;;;;;;;0.22;0.00;;;22.30;99.90;;;;;;5016725;28;20034;-88
2021/08/02 03:13:29;;;;;;;0.10;0.10;;;22.20;99.90;;;;;;5017008;28;20056;-91
2021/08/02 03:15:55;;;;;;;0.00;0.00;;;22.30;99.90;;;;;;5015514;28;20092;-89
2021/08/02 03:18:26;;;;;;;0.00;0.00;;;22.30;99.90;;;;;;5015350;28;20030;-90
2021/08/02 03:20:52;;;;;;;0.00;0.00;;;22.20;99.90;;;;;;5014399;28;20030;-89
2021/08/02 03:23:28;;;;;;;0.00;0.00;;;22.10;99.90;;;;;;5015757;28;20430;-89
2021/08/02 03:26:18;;;;;;;0.00;0.00;;;22.10;99.90;;;;;;5015218;28;20026;-90
2021/08/02 03:28:46;;;;;;;0.00;0.00;;;22.10;99.90;;;;;;5014698;28;20034;-90
2021/08/02 03:31:15;;;;;;;0.00;0.00;;;22.00;99.90;;;;;;5015663;28;20030;-88
2021/08/02 03:33:42;;;;;;;0.00;0.00;;;22.00;99.90;;;;;;5014137;28;20157;-89
2021/08/02 03:36:11;;;;;;;0.00;0.00;;;22.00;99.90;;;;;;5014104;28;20387;-90
2021/08/02 03:38:39;;;;;;;0.00;0.00;;;22.00;99.90;;;;;;5014290;28;20022;-88
2021/08/02 03:41:06;;;;;;;0.00;0.00;;;22.00;99.90;;;;;;5013758;28;20034;-88
2021/08/02 03:43:35;;;;;;;0.00;0.00;;;22.00;99.90;;;;;;5013871;28;20033;-89
2021/08/02 03:46:03;;;;;;;0.00;0.00;;;22.20;99.90;;;;;;5016574;28;20038;-88
2021/08/02 03:48:30;;;;;;;0.00;0.00;;;22.20;99.90;;;;;;5037299;28;20437;-88
2021/08/02 03:50:56;;;;;;;0.00;0.00;;;22.30;99.90;;;;;;5039327;28;20083;-90
2021/08/02 03:53:25;;;;;;;0.00;0.00;;;22.40;99.90;;;;;;5037985;28;20037;-91
2021/08/02 03:55:52;;;;;;;0.00;0.00;;;22.40;99.90;;;;;;5036779;28;20029;-89
2021/08/02 03:58:18;;;;;;;0.00;0.00;;;22.40;99.90;;;;;;5036906;28;20036;-90
2021/08/02 04:00:43;;;;;;;0.00;0.00;;;22.50;99.90;;;;;;5036072;28;20029;-90
2021/08/02 04:03:09;;;;;;;0.00;0.00;;;22.50;99.90;;;;;;5035687;28;20386;-90
2021/08/02 04:05:37;;;;;;;0.00;0.00;;;22.60;99.90;;;;;;5037720;28;20025;-90
2021/08/02 04:08:03;;;;;;;0.08;0.08;;;22.70;99.90;;;;;;5037074;28;20043;-88
2021/08/02 04:10:30;;;;;;;0.00;0.00;;;22.70;99.90;;;;;;5036209;28;20382;-88
2021/08/02 04:12:57;;;;;;;0.00;0.00;;;22.90;99.90;;;;;;5037818;28;20053;-89
2021/08/02 04:15:23;;;;;;;0.00;0.00;;;22.90;99.90;;;;;;5038192;28;20029;-90
2021/08/02 04:17:51;;;;;;;0.00;0.00;;;23.10;99.90;;;;;;5036710;28;20071;-90
2021/08/02 04:20:18;;;;;;;0.00;0.00;;;23.30;99.90;;;;;;5036576;28;20071;-89
2021/08/02 04:22:47;;;;;;;0.00;0.00;;;23.30;99.90;;;;;;5037292;28;20033;-90
2021/08/02 04:25:13;;;;;;;0.00;0.00;;;23.30;99.90;;;;;;5037197;28;20029;-90
2021/08/02 04:27:38;;;;;;;0.00;0.00;;;23.40;99.90;;;;;;5036197;28;20087;-90
2021/08/02 04:30:05;;;;;;;0.00;0.00;;;23.40;99.90;;;;;;5036642;28;20017;-90
2021/08/02 04:32:31;;;;;;;0.00;0.00;;;23.40;99.90;;;;;;5037849;28;20048;-93
2021/08/02 04:35:06;;;;;;;0.00;0.00;;;23.50;99.90;;;;;;5042002;28;20039;-88
2021/08/02 04:37:38;;;;;;;0.00;0.00;;;23.60;99.90;;;;;;5037750;28;20029;-89
2021/08/02 04:40:19;;;;;;;0.10;0.10;;;23.60;99.90;;;;;;5037032;28;20107;-92
2021/08/02 04:42:44;;;;;;;0.00;0.00;;;23.70;99.90;;;;;;5036565;28;20040;-88
2021/08/02 04:45:16;;;;;;;0.00;0.00;;;23.70;99.90;;;;;;5036367;28;20242;-91
2021/08/02 04:47:51;;;;;;;0.00;0.00;;;23.90;99.90;;;;;;5036212;28;20126;-90
2021/08/02 04:50:17;;;;;;;0.00;0.00;;;24.00;99.90;;;;;;5036316;28;20478;-90
2021/08/02 04:52:46;;;;;;;0.00;0.00;;;24.20;99.90;;;;;;5035983;28;20120;-90
2021/08/02 04:55:13;;;;;;;0.00;0.00;;;24.40;99.90;;;;;;5036103;28;20478;-90
2021/08/02 04:57:39;;;;;;;0.00;0.00;;;24.70;99.90;;;;;;5036489;28;20025;-90
2021/08/02 05:00:06;;;;;;;0.00;0.00;;;24.90;99.90;;;;;;5037109;28;20036;-92
2021/08/02 05:02:32;;;;;;;0.00;0.00;;;25.10;99.90;;;;;;5034987;28;20040;-90
2021/08/02 05:05:11;;;;;;;0.00;0.00;;;25.40;99.70;;;;;;5054658;28;20513;-89
2021/08/02 05:07:36;;;;;;;0.00;0.00;;;25.60;99.00;;;;;;5037595;28;20394;-88
2021/08/02 05:10:02;;;;;;;0.05;0.05;;;25.90;98.30;;;;;;5046250;28;20025;-89
2021/08/02 05:12:34;;;;;;;0.00;0.00;;;26.10;96.40;;;;;;5046241;28;20033;-90
2021/08/02 05:15:17;;;;;;;0.00;0.00;;;26.30;95.90;;;;;;5046156;28;20027;-90
2021/08/02 05:18:10;;;;;;;0.00;0.00;;;26.60;95.20;;;;;;5037259;28;20045;-91
2021/08/02 05:20:47;;;;;;;0.00;0.00;;;26.90;93.60;;;;;;5042177;23;20024;-90
2021/08/02 05:23:36;;;;;;;0.00;0.00;;;27.10;92.10;;;;;;4973279;28;20078;-89
2021/08/02 05:26:05;;;;;;;0.00;0.00;;;27.40;91.30;;;;;;4958630;28;20027;-91
2021/08/02 05:28:31;;;;;;;0.00;0.00;;;27.50;90.10;;;;;;4958486;28;20439;-90
2021/08/02 05:30:57;;;;;;;0.00;0.00;;;27.60;89.00;;;;;;4958790;28;20229;-91
2021/08/02 05:33:25;;;;;;;0.00;0.00;;;27.80;88.70;;;;;;4958760;28;20035;-90
2021/08/02 05:35:51;;;;;;;0.00;0.00;;;28.00;85.80;;;;;;4958608;28;20023;-90
2021/08/02 05:38:33;;;;;;;0.00;0.00;;;28.20;85.00;;;;;;4976398;28;20033;-91
2021/08/02 05:40:59;;;;;;;0.00;0.00;;;28.30;83.10;;;;;;4964599;28;20113;-90
2021/08/02 05:43:34;;;;;;;0.00;0.00;;;28.10;83.50;;;;;;4975767;28;20011;-90
2021/08/02 05:46:08;;;;;;;0.00;0.00;;;27.90;83.80;;;;;;4962410;28;20038;-91
2021/08/02 05:48:37;;;;;;;0.00;0.00;;;27.80;84.00;;;;;;4959802;28;20047;-91
2021/08/02 05:51:10;;;;;;;0.00;0.00;;;27.70;84.10;;;;;;4958753;28;20033;-90
2021/08/02 05:54:24;;;;;;;0.00;0.00;;;27.90;85.40;;;;;;4957645;28;20027;-89
2021/08/02 05:57:24;;;;;;;0.00;0.00;;;28.20;85.00;;;;;;4956840;28;20125;-90
2021/08/02 06:00:18;;;;;;;0.00;0.00;;;28.70;83.20;;;;;;4976563;28;20058;-92
2021/08/02 06:02:48;;;;;;;0.00;0.00;;;29.30;80.50;;;;;;4958392;28;20166;-90
2021/08/02 06:05:29;;;;;;;0.00;0.00;;;29.70;79.30;;;;;;4958781;28;20027;-91
2021/08/02 06:08:13;;;;;;;0.00;0.00;;;30.10;77.10;;;;;;4958934;28;20031;-91
2021/08/02 06:10:38;;;;;;;;;;;30.30;76.60;;;;;;4972183;23;20503;-88
2021/08/02 06:13:13;;;;;;;0.00;0.00;;;30.50;76.20;;;;;;5016701;28;19909;-87
2021/08/02 06:15:38;;;;;;;0.00;0.00;;;30.80;74.20;;;;;;5021665;28;20034;-89
2021/08/02 06:18:20;;;;;;;0.00;0.00;;;31.30;73.50;;;;;;5018495;28;20036;-87
2021/08/02 06:20:51;;;;;;;0.00;0.00;;;31.70;72.50;;;;;;5019493;28;20124;-89
2021/08/02 06:23:37;;;;;;;0.00;0.00;;;31.70;70.10;;;;;;5018849;28;20045;-89
2021/08/02 06:26:03;;;;;;;0.00;0.00;;;31.30;69.80;;;;;;5001969;28;20029;-88
2021/08/02 06:28:29;;;;;;;0.00;0.00;;;30.80;70.80;;;;;;5019107;28;20041;-88
2021/08/02 06:30:54;;;;;;;0.05;0.05;;;30.50;71.80;;;;;;5049360;28;20029;-85
2021/08/02 06:33:23;;;;;;;0.00;0.00;;;30.50;72.90;;;;;;5038780;28;20026;-89
2021/08/02 06:35:49;;;;;;;0.00;0.00;;;30.50;73.00;;;;;;5019226;28;20114;-90
2021/08/02 06:38:14;;;;;;;0.00;0.00;;;30.80;72.50;;;;;;5018579;28;20069;-87
2021/08/02 06:40:40;;;;;;;0.00;0.00;;;31.20;72.20;;;;;;5018126;28;20026;-87
2021/08/02 06:43:06;;;;;;;0.00;0.00;;;31.70;70.70;;;;;;5036182;28;20029;-88
2021/08/02 06:45:32;;;;;;;0.00;0.00;;;31.70;69.20;;;;;;5018495;28;20457;-87
2021/08/02 06:47:57;;;;;;;0.00;0.00;;;31.50;69.10;;;;;;5036192;28;20482;-88
2021/08/02 06:50:25;;;;;;;0.00;0.00;;;31.20;69.70;;;;;;5018140;28;20068;-87
2021/08/02 06:52:51;;;;;;;0.00;0.00;;;30.90;70.60;;;;;;5017988;28;20037;-88
2021/08/02 06:55:17;;;;;;;0.00;0.00;;;30.80;71.20;;;;;;5018143;28;20022;-87
2021/08/02 06:57:45;;;;;;;0.00;0.00;;;30.60;71.60;;;;;;5018222;28;20045;-86
2021/08/02 07:00:14;;;;;;;0.00;0.00;;;30.50;72.20;;;;;;5024166;28;20028;-89
2021/08/02 07:02:40;;;;;;;0.00;0.00;;;30.30;73.00;;;;;;5017680;28;20087;-87
2021/08/02 07:05:06;;;;;;;0.00;0.00;;;30.20;73.40;;;;;;5018119;28;20108;-86
2021/08/02 07:07:32;;;;;;;0.00;0.00;;;30.10;74.20;;;;;;5017278;28;20183;-87
2021/08/02 07:09:58;;;;;;;0.00;0.00;;;30.50;74.90;;;;;;5017777;28;20084;-86
2021/08/02 07:12:23;;;;;;;0.00;0.00;;;31.20;73.80;;;;;;5017581;28;20053;-87
2021/08/02 07:14:49;;;;;;;0.00;0.00;;;31.80;71.60;;;;;;5035355;28;20390;-88
2021/08/02 07:17:15;;;;;;;0.00;0.00;;;32.30;70.70;;;;;;5018410;28;20053;-89
2021/08/02 07:19:40;;;;;;;0.00;0.00;;;32.70;68.50;;;;;;5018944;28;20033;-90
2021/08/02 07:22:06;;;;;;;0.00;0.00;;;33.00;67.80;;;;;;5019146;28;20037;-89
2021/08/02 07:24:38;;;;;;;0.00;0.00;;;33.40;67.00;;;;;;5018345;28;20443;-88
2021/08/02 07:27:07;;;;;;;0.00;0.00;;;33.70;65.40;;;;;;5018439;28;20379;-87
2021/08/02 07:29:32;;;;;;;0.00;0.00;;;33.70;64.90;;;;;;5016466;28;20029;-90
2021/08/02 07:32:10;;;;;;;0.00;0.00;;;33.80;64.80;;;;;;5016245;28;20083;-88
2021/08/02 07:35:02;;;;;;;0.00;0.00;;;34.00;65.10;;;;;;5015385;28;20479;-88
2021/08/02 07:37:49;;;;;;;0.00;0.00;;;34.30;64.40;;;;;;4978932;28;20103;-90
2021/08/02 07:41:02;;;;;;;0.00;0.00;;;34.60;62.50;;;;;;5014283;28;20538;-88
2021/08/02 07:43:33;;;;;;;0.00;0.00;;;34.80;63.00;;;;;;5015499;28;20034;-88
2021/08/02 07:46:31;;;;;;;0.03;0.03;;;35.20;60.40;;;;;;5034105;28;20072;-87
2021/08/02 07:48:57;;;;;;;0.00;0.00;;;35.20;59.40;;;;;;5014437;28;20045;-88
2021/08/02 07:51:42;;;;;;;0.00;0.00;;;35.10;58.90;;;;;;5015677;28;20356;-90
2021/08/02 07:54:19;;;;;;;0.00;0.00;;;35.40;58.60;;;;;;5016281;28;20044;-89
2021/08/02 07:56:50;;;;;;;0.00;0.00;;;35.50;58.20;;;;;;5018379;28;20515;-88
2021/08/02 07:59:19;;;;;;;0.00;0.00;;;35.80;57.10;;;;;;5022339;28;20510;-89
2021/08/02 08:02:05;;;;;;;0.10;0.10;;;36.00;56.90;;;;;;5018635;28;20112;-90
2021/08/02 08:05:00;;;;;;;0.10;0.10;;;36.40;56.30;;;;;;5020195;28;20056;-90
2021/08/02 08:07:29;;;;;;;0.00;0.00;;;36.40;55.30;;;;;;4989817;28;20406;-90
2021/08/02 08:10:24;;;;;;;0.00;0.00;;;35.90;55.90;;;;;;5014123;28;20030;-88
2021/08/02 08:12:53;;;;;;;0.00;0.00;;;35.50;57.10;;;;;;4917184;29;20032;-88
2021/08/02 08:15:28;;;;;;;0.00;0.00;;;35.20;57.70;;;;;;5006122;28;20046;-87
2021/08/02 08:18:03;;;;;;;0.00;0.00;;;34.80;58.40;;;;;;5012389;28;20025;-91
2021/08/02 08:20:40;;;;;;;0.00;0.00;;;34.70;59.00;;;;;;5011638;28;20029;-89
2021/08/02 08:23:18;;;;;;;0.00;0.00;;;34.60;58.60;;;;;;5014024;28;20525;-89
2021/08/02 08:25:48;;;;;;;0.00;0.00;;;34.40;58.80;;;;;;5016950;28;20038;-89
2021/08/02 08:28:13;;;;;;;0.00;0.00;;;34.20;58.60;;;;;;5013112;28;20041;-89
2021/08/02 08:30:46;;;;;;;0.00;0.00;;;34.20;58.80;;;;;;5014438;28;20028;-89
2021/08/02 08:33:11;;;;;;;0.00;0.00;;;34.30;59.10;;;;;;5018287;28;20394;-89
2021/08/02 08:35:43;;;;;;;0.00;0.00;;;34.50;58.40;;;;;;5017505;28;20013;-87
2021/08/02 08:38:19;;;;;;;0.00;0.00;;;34.40;57.10;;;;;;5015068;28;20036;-88
2021/08/02 08:40:59;;;;;;;0.00;0.00;;;34.10;57.90;;;;;;5016001;28;20060;-88
2021/08/02 08:43:24;;;;;;;0.00;0.00;;;34.00;58.10;;;;;;5018597;28;20025;-90
2021/08/02 08:46:31;;;;;;;0.00;0.00;;;33.90;58.50;;;;;;5017493;28;20386;-88
2021/08/02 08:49:02;;;;;;;0.00;0.00;;;33.90;58.60;;;;;;5013946;28;20095;-89
2021/08/02 08:51:47;;;;;;;0.00;0.00;;;33.80;59.10;;;;;;5017137;28;20372;-86
2021/08/02 08:54:19;;;;;;;0.00;0.00;;;33.70;59.70;;;;;;5018613;28;20026;-93
2021/08/02 08:56:48;;;;;;;0.00;0.00;;;33.70;60.10;;;;;;5019091;28;20037;-88
2021/08/02 08:59:17;;;;;;;0.00;0.00;;;33.90;59.70;;;;;;5043418;23;20046;-89
2021/08/02 09:01:42;;;;;;;0.00;0.00;;;33.80;59.90;;;;;;5035875;28;20022;-87
2021/08/02 09:04:08;;;;;;;0.00;0.00;;;33.60;59.70;;;;;;5034321;28;20067;-87
2021/08/02 09:06:56;;;;;;;0.00;0.00;;;33.40;60.50;;;;;;5034061;28;20033;-91
2021/08/02 09:09:36;;;;;;;0.00;0.00;;;33.40;60.70;;;;;;5031495;28;20025;-89
2021/08/02 09:12:13;;;;;;;0.00;0.00;;;33.20;60.20;;;;;;5029618;28;20017;-89
2021/08/02 09:15:00;;;;;;;0.00;0.00;;;33.20;60.10;;;;;;5029190;28;20406;-89
2021/08/02 09:17:37;;;;;;;0.00;0.00;;;33.00;60.80;;;;;;5031016;28;20032;-89
2021/08/02 09:20:24;;;;;;;0.00;0.00;;;33.10;60.50;;;;;;5031046;28;20052;-86
2021/08/02 09:22:51;;;;;;;0.00;0.00;;;33.80;60.00;;;;;;5031638;28;20029;-87
2021/08/02 09:25:20;;;;;;;0.00;0.00;;;34.20;59.80;;;;;;5034081;28;20061;-88
2021/08/02 09:27:50;;;;;;;0.00;0.00;;;34.60;57.70;;;;;;5033680;28;20055;-89
2021/08/02 09:30:20;;;;;;;0.00;0.00;;;34.50;56.30;;;;;;5032107;28;20485;-88
2021/08/02 09:32:52;;;;;;;0.00;0.00;;;34.20;56.60;;;;;;5032158;28;20475;-88
2021/08/02 09:35:33;;;;;;;0.00;0.00;;;33.70;56.80;;;;;;5031250;28;20087;-88
2021/08/02 09:38:05;;;;;;;0.00;0.00;;;33.30;57.70;;;;;;5030961;28;20018;-89
2021/08/02 09:40:54;;;;;;;0.00;0.00;;;33.00;58.20;;;;;;5031696;28;20064;-88
2021/08/02 09:43:22;;;;;;;0.00;0.00;;;32.90;58.40;;;;;;5033416;28;20022;-87
2021/08/02 09:45:53;;;;;;;0.00;0.00;;;32.80;59.00;;;;;;5033501;28;20061;-88
2021/08/02 09:48:20;;;;;;;0.00;0.00;;;32.80;59.20;;;;;;5034569;28;20112;-89
2021/08/02 09:50:49;;;;;;;0.00;0.00;;;32.90;59.30;;;;;;5036332;28;20435;-87
2021/08/02 09:53:20;;;;;;;0.00;0.00;;;33.10;59.60;;;;;;5034838;28;20026;-86
2021/08/02 09:55:47;;;;;;;0.00;0.00;;;33.30;58.70;;;;;;5036240;28;20124;-89
2021/08/02 09:58:18;;;;;;;0.00;0.00;;;33.30;58.60;;;;;;5035886;28;20033;-89
2021/08/02 10:00:45;;;;;;;0.00;0.00;;;33.20;58.60;;;;;;5035822;28;20030;-88
2021/08/02 10:03:13;;;;;;;0.00;0.00;;;33.10;58.90;;;;;;5036746;28;20026;-89
2021/08/02 10:06:04;;;;;;;0.00;0.00;;;32.90;58.80;;;;;;5034662;28;20030;-89
2021/08/02 10:09:11;;;;;;;0.00;0.00;;;32.80;58.80;;;;;;5036588;28;20065;-91
2021/08/02 10:11:50;;;;;;;0.00;0.00;;;32.70;59.50;;;;;;5036299;28;20037;-89
2021/08/02 10:17:08;;;;;;;0.00;0.00;;;32.60;59.50;;;;;;5052171;28;20133;-89
2021/08/02 10:19:59;;;;;;;0.00;0.00;;;32.50;59.70;;;;;;5026398;28;20100;-89
2021/08/02 10:22:50;;;;;;;0.00;0.00;;;32.40;59.90;;;;;;5014175;28;20037;-88
2021/08/02 10:25:17;;;;;;;0.00;0.00;;;32.30;60.20;;;;;;5005782;28;20041;-90
2021/08/02 10:27:43;;;;;;;0.00;0.00;;;32.20;61.10;;;;;;5033922;28;20498;-90
2021/08/02 10:30:25;;;;;;;0.00;0.00;;;32.20;61.30;;;;;;5035262;28;20033;-89
2021/08/02 10:33:14;;;;;;;;;;;;;;;;;;;;;
2021/08/02 10:35:54;;;;;;;0.00;0.00;;;32.40;61.20;;;;;;5065985;28;20080;-91
2021/08/02 10:38:51;;;;;;;0.00;0.00;;;32.80;61.00;;;;;;5068523;28;20131;-96
2021/08/02 10:41:40;;;;;;;0.00;0.00;;;33.50;60.20;;;;;;5044901;28;20034;-90
2021/08/02 10:44:21;;;;;;;0.00;0.00;;;34.60;58.80;;;;;;5037992;28;20056;-92
2021/08/02 10:47:20;;;;;;;0.00;0.00;;;35.10;56.60;;;;;;5035489;28;20502;-91
2021/08/02 10:50:05;;;;;;;0.00;0.00;;;35.40;56.50;;;;;;5009568;28;20048;-93
2021/08/02 10:52:35;;;;;;;0.00;0.00;;;35.90;55.70;;;;;;5036022;28;20042;-91
2021/08/02 10:55:14;;;;;;;0.00;0.00;;;36.20;54.50;;;;;;5036961;28;20055;-90
2021/08/02 10:58:17;;;;;;;0.00;0.00;;;36.20;54.00;;;;;;5037041;28;20030;-91
2021/08/02 11:00:53;;;;;;;0.00;0.00;;;35.90;54.20;;;;;;5038094;28;20036;-93
2021/08/02 11:03:46;;;;;;;0.00;0.00;;;35.30;55.10;;;;;;5037875;28;20025;-91
2021/08/02 11:06:28;;;;;;;0.00;0.00;;;34.50;56.00;;;;;;5021954;28;20617;-93
2021/08/02 11:08:56;;;;;;;0.00;0.00;;;33.70;57.10;;;;;;5037939;28;20207;-91
2021/08/02 11:12:13;;;;;;;0.00;0.00;;;33.10;57.80;;;;;;5019927;28;20057;-93
2021/08/02 11:14:25;;;;;;;0.00;0.00;;;32.70;58.80;;;;;;5027669;28;20061;-92
2021/08/02 11:16:52;;;;;;;0.00;0.00;;;32.30;59.80;;;;;;5038142;28;20072;-91
2021/08/02 11:19:31;;;;;;;0.00;0.00;;;31.90;60.60;;;;;;5058042;28;20033;-91
2021/08/02 11:22:19;;;;;;;0.00;0.00;;;31.70;61.50;;;;;;5063889;28;20025;-92
2021/08/02 11:25:01;;;;;;;0.00;0.00;;;31.40;62.50;;;;;;5065113;28;20033;-93
2021/08/02 11:27:27;;;;;;;0.00;0.00;;;31.10;65.70;;;;;;5064413;28;20055;-92
2021/08/02 11:32:49;;;;;;;0.00;0.00;;;30.10;69.20;;;;;;5036129;28;20042;-88
2021/08/02 11:35:30;;;;;;;0.00;0.00;;;29.60;71.00;;;;;;5019474;28;20037;-88
2021/08/02 11:37:56;;;;;;;0.00;0.00;;;29.20;74.00;;;;;;5018036;28;20036;-88
2021/08/02 11:40:38;;;;;;;0.00;0.00;;;28.80;78.00;;;;;;5018077;28;20025;-90
2021/08/02 11:43:05;;;;;;;0.00;0.00;;;28.10;79.50;;;;;;5041781;28;20036;-89
2021/08/02 11:45:32;;;;;;;0.00;0.00;;;27.50;80.00;;;;;;5039754;28;20029;-89
2021/08/02 11:48:10;;;;;;;0.00;0.00;;;27.10;79.70;;;;;;5020395;28;20034;-88
2021/08/02 11:50:36;;;;;;;0.00;0.00;;;26.90;80.30;;;;;;5017286;28;20097;-89
2021/08/02 11:53:05;;;;;;;0.00;0.00;;;26.80;81.40;;;;;;5016846;28;20037;-88
2021/08/02 11:55:31;;;;;;;0.00;0.00;;;26.70;81.70;;;;;;5033614;28;20041;-89
2021/08/02 11:57:59;;;;;;;0.00;0.00;;;26.50;82.00;;;;;;5017088;28;20124;-90
2021/08/02 12:00:28;;;;;;;0.00;0.00;;;26.70;78.00;;;;;;5015661;28;20060;-88
2021/08/02 12:03:04;;;;;;;0.00;0.00;;;26.80;76.40;;;;;;5032303;28;20556;-89
2021/08/02 12:05:30;;;;;;;0.00;0.00;;;27.20;71.80;;;;;;5014471;28;20029;-89
2021/08/02 12:08:11;;;;;;;0.00;0.00;;;28.00;70.50;;;;;;5016128;28;20038;-88
2021/08/02 12:10:38;;;;;;;0.00;0.00;;;29.10;68.20;;;;;;5016733;28;20116;-88
2021/08/02 12:13:05;;;;;;;0.00;0.00;;;30.00;65.50;;;;;;5016870;28;20084;-89
2021/08/02 12:15:32;;;;;;;0.00;0.00;;;30.80;63.60;;;;;;5019554;28;20479;-89
2021/08/02 12:18:05;;;;;;;0.00;0.00;;;31.50;61.80;;;;;;5016818;28;20052;-88
2021/08/02 12:20:43;;;;;;;0.00;0.00;;;32.10;60.50;;;;;;5016664;28;20060;-88
2021/08/02 12:23:20;;;;;;;0.00;0.00;;;32.60;59.50;;;;;;5046285;28;20040;-90
2021/08/02 12:25:49;;;;;;;0.00;0.00;;;33.00;59.00;;;;;;5034059;28;20033;-89
2021/08/02 12:28:17;;;;;;;0.00;0.00;;;33.60;58.70;;;;;;5014839;28;20124;-90
2021/08/02 12:30:55;;;;;;;0.00;0.00;;;34.10;56.20;;;;;;5015869;28;20076;-89
2021/08/02 12:33:43;;;;;;;0.08;0.08;;;34.30;55.90;;;;;;5015798;28;20065;-89
2021/08/02 12:36:09;;;;;;;0.00;0.00;;;35.10;56.70;;;;;;5015726;28;20466;-88
2021/08/02 12:38:40;;;;;;;0.00;0.00;;;36.00;55.80;;;;;;5028461;28;20034;-89
2021/08/02 12:41:07;;;;;;;0.00;0.00;;;37.20;53.90;;;;;;5015511;28;20037;-89
2021/08/02 12:43:34;;;;;;;0.00;0.00;;;38.10;52.00;;;;;;5031477;28;20160;-89
2021/08/02 12:46:00;;;;;;;0.10;0.10;;;38.70;50.10;;;;;;5032799;28;20033;-90
2021/08/02 12:48:26;;;;;;;0.10;0.10;;;39.10;49.40;;;;;;5014072;28;20048;-90
2021/08/02 12:50:51;;;;;;;0.10;0.10;;;39.40;48.30;;;;;;5014016;28;20029;-92
2021/08/02 12:53:17;;;;;;;0.10;0.10;;;39.50;48.40;;;;;;5015670;28;20018;-90
2021/08/02 12:55:43;;;;;;;0.03;0.03;;;39.80;48.40;;;;;;5033928;28;20095;-88
2021/08/02 12:58:08;;;;;;;0.00;0.00;;;39.50;46.50;;;;;;5035234;28;20028;-88
2021/08/02 13:00:34;;;;;;;0.00;0.00;;;39.00;47.70;;;;;;5041349;28;20077;-88
2021/08/02 13:03:00;;;;;;;0.00;0.00;;;39.00;47.80;;;;;;5031307;28;20044;-87
2021/08/02 13:05:25;;;;;;;0.00;0.00;;;39.00;47.30;;;;;;5035297;28;20025;-88
2021/08/02 13:07:51;;;;;;;0.00;0.00;;;38.80;48.00;;;;;;5034988;28;20541;-89
2021/08/02 13:10:17;;;;;;;0.00;0.00;;;38.60;48.40;;;;;;5018433;28;20074;-88
2021/08/02 13:12:43;;;;;;;0.00;0.00;;;38.30;48.80;;;;;;5018714;28;20109;-89
2021/08/02 13:15:09;;;;;;;0.00;0.00;;;38.00;49.40;;;;;;5017389;28;20497;-86
2021/08/02 13:17:35;;;;;;;0.00;0.00;;;37.80;49.20;;;;;;5037743;28;20037;-88
2021/08/02 13:20:01;;;;;;;0.00;0.00;;;37.20;50.10;;;;;;5034508;28;20030;-89
2021/08/02 13:22:42;;;;;;;0.00;0.00;;;36.50;51.10;;;;;;5017883;28;20128;-89